createdAt,value
2018-12-13T00:02:36.658Z,92.81
2018-12-13T00:07:41.034Z,92.04
2018-12-13T00:12:43.303Z,92.58
2018-12-13T00:17:45.545Z,93.00
2018-12-13T00:22:47.900Z,93.10
2018-12-13T00:27:50.147Z,93.35
2018-12-13T00:32:52.402Z,93.54
2018-12-13T00:37:54.661Z,92.86
2018-12-13T00:42:56.900Z,93.12
2018-12-13T00:47:59.250Z,92.95
2018-12-13T00:53:01.527Z,93.39
2018-12-13T00:58:03.886Z,93.11
2018-12-13T01:03:06.147Z,92.77
2018-12-13T01:08:08.375Z,92.08
2018-12-13T01:13:10.737Z,91.88
2018-12-13T01:18:12.979Z,92.20
2018-12-13T01:23:15.313Z,92.03
2018-12-13T01:28:17.609Z,92.54
2018-12-13T01:33:19.858Z,91.97
2018-12-13T01:38:22.114Z,91.52
2018-12-13T01:43:24.595Z,91.19
2018-12-13T01:48:26.849Z,91.48
2018-12-13T01:53:29.320Z,90.13
2018-12-13T01:58:31.561Z,88.46
2018-12-13T02:03:33.807Z,88.40
2018-12-13T02:08:36.060Z,88.61
2018-12-13T02:13:38.476Z,88.55
2018-12-13T02:18:40.842Z,88.92
2018-12-13T02:23:43.302Z,90.49
2018-12-13T02:28:45.560Z,90.62
2018-12-13T02:33:47.819Z,91.34
2018-12-13T02:38:50.116Z,91.46
2018-12-13T02:43:52.359Z,91.65
2018-12-13T02:49:08.270Z,91.09
2018-12-13T02:54:10.546Z,90.47
2018-12-13T02:59:12.794Z,90.02
2018-12-13T03:04:15.066Z,90.50
2018-12-13T03:09:17.316Z,89.54
2018-12-13T03:14:19.626Z,89.23
2018-12-13T03:19:21.867Z,90.05
2018-12-13T03:24:24.140Z,89.93
2018-12-13T03:29:26.508Z,88.90
2018-12-13T03:34:28.756Z,89.47
2018-12-13T03:39:31.039Z,89.77
2018-12-13T03:44:33.282Z,88.84
2018-12-13T03:49:35.683Z,90.04
2018-12-13T03:54:37.999Z,89.48
2018-12-13T03:59:40.389Z,90.13
2018-12-13T04:04:42.642Z,90.24
2018-12-13T04:09:45.056Z,89.37
2018-12-13T04:14:47.659Z,90.04
2018-12-13T04:19:49.935Z,90.08
2018-12-13T04:24:53.799Z,90.49
2018-12-13T04:29:56.078Z,90.28
2018-12-13T04:34:58.371Z,90.20
2018-12-13T04:40:00.642Z,90.50
2018-12-13T04:45:03.107Z,90.01
2018-12-13T04:50:06.167Z,90.34
2018-12-13T04:55:09.358Z,90.49
2018-12-13T05:00:12.002Z,90.86
2018-12-13T05:05:14.491Z,90.71
2018-12-13T05:10:28.307Z,90.46
2018-12-13T05:15:31.759Z,90.75
2018-12-13T05:20:34.146Z,90.36
2018-12-13T05:25:36.541Z,90.03
2018-12-13T05:30:39.078Z,89.90
2018-12-13T05:35:41.343Z,90.96
2018-12-13T05:40:43.675Z,90.08
2018-12-13T05:45:45.988Z,89.95
2018-12-13T05:50:48.640Z,89.80
2018-12-13T05:55:50.956Z,89.45
2018-12-13T06:00:53.226Z,89.50
2018-12-13T06:05:55.499Z,89.42
2018-12-13T06:10:57.838Z,89.22
2018-12-13T06:16:00.751Z,89.92
2018-12-13T06:21:03.173Z,89.28
2018-12-13T06:26:05.531Z,89.16
2018-12-13T06:31:07.815Z,88.83
2018-12-13T06:36:10.729Z,88.92
2018-12-13T06:41:13.203Z,89.79
2018-12-13T06:46:15.673Z,90.10
2018-12-13T06:51:17.945Z,90.38
2018-12-13T06:56:21.430Z,90.43
2018-12-13T07:01:23.696Z,91.00
2018-12-13T07:06:25.978Z,90.77
2018-12-13T07:11:28.328Z,90.98
2018-12-13T07:16:30.647Z,90.83
2018-12-13T07:21:32.966Z,91.31
2018-12-13T07:26:35.332Z,91.19
2018-12-13T07:31:37.630Z,91.53
2018-12-13T07:36:39.990Z,91.32
2018-12-13T07:41:43.045Z,92.15
2018-12-13T07:46:45.928Z,91.46
2018-12-13T07:51:48.220Z,91.29
2018-12-13T07:56:50.545Z,92.19
2018-12-13T08:01:53.171Z,91.68
2018-12-13T08:06:55.496Z,92.00
2018-12-13T08:11:57.779Z,92.51
2018-12-13T08:17:00.136Z,91.94
2018-12-13T08:22:04.510Z,90.98
2018-12-13T08:27:06.920Z,91.87
2018-12-13T08:32:09.200Z,91.61
2018-12-13T08:37:11.496Z,91.35
2018-12-13T08:42:13.763Z,91.39
2018-12-13T08:47:16.159Z,92.05
2018-12-13T08:52:18.468Z,92.16
2018-12-13T08:57:21.042Z,91.54
2018-12-13T09:02:23.304Z,92.24
2018-12-13T09:07:25.587Z,92.10
2018-12-13T09:12:27.871Z,91.98
2018-12-13T09:17:30.167Z,92.59
2018-12-13T09:22:32.447Z,92.67
2018-12-13T09:27:34.778Z,91.98
2018-12-13T09:32:37.263Z,92.26
2018-12-13T09:37:39.555Z,91.60
2018-12-13T09:42:41.831Z,91.56
2018-12-13T09:47:44.105Z,91.33
2018-12-13T09:52:46.490Z,91.20
2018-12-13T09:57:48.852Z,90.21
2018-12-13T10:02:51.327Z,90.61
2018-12-13T10:07:54.262Z,90.56
2018-12-13T10:12:57.011Z,91.14
2018-12-13T10:17:59.364Z,89.88
2018-12-13T10:23:01.660Z,90.38
2018-12-13T10:28:05.570Z,89.88
2018-12-13T10:33:07.859Z,89.82
2018-12-13T10:38:11.822Z,89.39
2018-12-13T10:43:14.266Z,89.79
2018-12-13T10:48:16.546Z,89.63
2018-12-13T10:53:19.247Z,89.50
2018-12-13T10:58:21.592Z,89.83
2018-12-13T11:03:29.614Z,89.55
2018-12-13T11:08:38.787Z,89.31
2018-12-13T11:13:41.263Z,89.33
2018-12-13T11:18:43.656Z,89.29
2018-12-13T11:23:45.940Z,89.93
2018-12-13T11:30:15.761Z,88.75
2018-12-13T11:35:18.067Z,88.05
2018-12-13T11:40:20.340Z,88.66
2018-12-13T11:45:22.759Z,87.84
2018-12-13T11:50:25.079Z,88.13
2018-12-13T11:55:32.520Z,88.37
2018-12-13T12:00:34.843Z,87.98
2018-12-13T12:05:37.138Z,88.73
2018-12-13T12:10:40.118Z,88.58
2018-12-13T12:15:42.587Z,88.82
2018-12-13T12:20:45.119Z,88.27
2018-12-13T12:25:48.350Z,88.22
2018-12-13T12:30:51.028Z,86.96
2018-12-13T12:35:53.299Z,87.78
2018-12-13T12:40:55.578Z,87.21
2018-12-13T12:45:57.853Z,86.94
2018-12-13T12:51:00.187Z,87.35
2018-12-13T12:56:02.608Z,85.68
2018-12-13T13:01:05.053Z,86.15
2018-12-13T13:06:07.322Z,85.02
2018-12-13T13:11:09.660Z,85.32
2018-12-13T13:16:11.987Z,84.12
2018-12-13T13:21:14.300Z,83.69
2018-12-13T13:26:16.599Z,82.66
2018-12-13T13:31:18.951Z,82.43
2018-12-13T13:36:21.981Z,82.09
2018-12-13T13:41:27.331Z,82.93
2018-12-13T13:46:29.780Z,83.72
2018-12-13T13:51:32.071Z,84.95
2018-12-13T13:56:34.413Z,84.66
2018-12-13T14:01:36.803Z,84.62
2018-12-13T14:06:39.120Z,85.30
2018-12-13T14:11:41.526Z,84.76
2018-12-13T14:16:43.992Z,84.92
2018-12-13T14:21:46.277Z,84.55
2018-12-13T14:26:49.165Z,85.33
2018-12-13T14:31:51.463Z,86.02
2018-12-13T14:36:53.899Z,86.80
2018-12-13T14:41:56.456Z,86.99
2018-12-13T14:47:00.856Z,87.47
2018-12-13T14:52:03.347Z,87.09
2018-12-13T14:57:05.640Z,87.62
2018-12-13T15:02:07.962Z,87.76
2018-12-13T15:07:10.347Z,88.25
2018-12-13T15:12:12.652Z,88.52
2018-12-13T15:17:15.008Z,89.06
2018-12-13T15:22:17.299Z,88.67
2018-12-13T15:27:19.607Z,89.37
2018-12-13T15:32:22.312Z,89.29
2018-12-13T15:37:24.659Z,89.09
2018-12-13T15:42:26.939Z,89.02
2018-12-13T15:47:29.215Z,89.32
2018-12-13T15:52:31.519Z,89.92
2018-12-13T15:57:35.721Z,89.86
2018-12-13T16:02:38.087Z,89.62
2018-12-13T16:07:41.127Z,90.39
2018-12-13T16:12:43.883Z,90.29
2018-12-13T16:17:46.345Z,89.91
2018-12-13T16:22:48.855Z,90.21
2018-12-13T16:27:51.298Z,89.72
2018-12-13T16:32:54.133Z,89.50
2018-12-13T16:37:56.690Z,89.78
2018-12-13T16:42:59.533Z,90.13
2018-12-13T16:48:02.614Z,89.56
2018-12-13T16:53:04.999Z,89.16
2018-12-13T16:58:07.283Z,90.05
2018-12-13T17:03:21.029Z,90.13
2018-12-13T17:08:24.521Z,90.65
2018-12-13T17:13:27.047Z,90.06
2018-12-13T17:18:29.394Z,89.97
2018-12-13T17:23:31.691Z,89.67
2018-12-13T17:28:34.060Z,89.58
2018-12-13T17:33:36.363Z,88.89
2018-12-13T17:38:38.630Z,89.67
2018-12-13T17:43:41.049Z,89.82
2018-12-13T17:48:43.376Z,89.27
2018-12-13T17:53:45.635Z,90.16
2018-12-13T17:58:48.066Z,89.49
2018-12-13T18:03:50.717Z,89.23
2018-12-13T18:08:53.015Z,89.25
2018-12-13T18:13:55.627Z,90.12
2018-12-13T18:18:59.477Z,89.02
2018-12-13T18:24:01.789Z,88.85
2018-12-13T18:29:05.248Z,88.00
2018-12-13T18:34:08.026Z,89.03
2018-12-13T18:39:10.373Z,88.06
2018-12-13T18:44:12.653Z,88.18
2018-12-13T18:49:15.067Z,88.49
2018-12-13T18:54:17.462Z,87.90
2018-12-13T18:59:19.850Z,87.43
2018-12-13T19:04:22.152Z,87.23
2018-12-13T19:09:24.498Z,86.38
2018-12-13T19:14:26.778Z,86.45
2018-12-13T19:19:29.974Z,85.44
2018-12-13T19:24:32.339Z,85.56
2018-12-13T19:29:34.606Z,84.08
2018-12-13T19:34:36.891Z,83.39
2018-12-13T19:39:39.853Z,84.64
2018-12-13T19:44:42.144Z,86.08
2018-12-13T19:49:45.167Z,85.72
2018-12-13T19:54:48.802Z,86.79
2018-12-13T19:59:52.542Z,87.58
2018-12-13T20:04:55.797Z,86.87
2018-12-13T20:09:58.255Z,86.99
2018-12-13T20:15:02.166Z,87.11
2018-12-13T20:20:05.367Z,87.62
2018-12-13T20:25:08.846Z,88.34
2018-12-13T20:30:12.250Z,87.55
2018-12-13T20:35:14.958Z,88.67
2018-12-13T20:40:17.335Z,88.95
2018-12-13T20:45:19.919Z,88.92
2018-12-13T20:50:22.175Z,89.87
2018-12-13T20:55:24.447Z,89.79
2018-12-13T21:00:26.727Z,89.88
2018-12-13T21:05:29.035Z,90.56
2018-12-13T21:10:31.478Z,90.61
2018-12-13T21:15:33.966Z,90.50
2018-12-13T21:20:36.236Z,90.97
2018-12-13T21:25:38.500Z,91.63
2018-12-13T21:30:41.604Z,90.82
2018-12-13T21:35:43.866Z,91.46
2018-12-13T21:40:46.176Z,91.45
2018-12-13T21:45:48.433Z,91.08
2018-12-13T21:50:50.875Z,91.55
2018-12-13T21:55:53.171Z,91.95
2018-12-13T22:00:55.443Z,91.55
2018-12-13T22:05:57.719Z,91.25
2018-12-13T22:11:01.270Z,91.51
2018-12-13T22:16:03.743Z,92.09
2018-12-13T22:21:06.077Z,92.63
2018-12-13T22:26:09.529Z,92.02
2018-12-13T22:31:12.011Z,91.99
2018-12-13T22:36:14.379Z,91.66
2018-12-13T22:41:16.678Z,92.47
2018-12-13T22:46:18.954Z,92.20
2018-12-13T22:51:21.263Z,92.19
2018-12-13T23:01:57.501Z,92.09
2018-12-13T23:06:59.907Z,91.87
2018-12-13T23:12:02.374Z,92.27
2018-12-13T23:17:05.923Z,92.09
2018-12-13T23:22:08.247Z,92.26
2018-12-13T23:27:11.050Z,92.39
2018-12-13T23:32:13.334Z,91.84
2018-12-13T23:37:16.698Z,91.75
2018-12-13T23:42:18.975Z,91.39
2018-12-13T23:47:21.315Z,89.71
2018-12-13T23:52:23.657Z,90.15
2018-12-13T23:57:25.934Z,90.41
